Time;durP1;ratioP1;P1;durP2;ratioP2;P2;SDS_P1;SDS_P2;PMS_P1;PMS_P2;Temp;Humidity;BMP_temperature;BMP_pressure;BME280_temperature;BME280_humidity;BME280_pressure;Samples;Min_cycle;Max_cycle;Signal;HPM_P1;HPM_P2
2021/03/21 00:01:51;;;;;;;10.15;9.20;;;30.20;91.90;;;;;;5051434;28;20198;-51
2021/03/21 00:04:22;;;;;;;10.60;9.70;;;30.20;92.00;;;;;;5054460;28;20193;-49
2021/03/21 00:06:52;;;;;;;10.75;9.75;;;30.20;92.00;;;;;;5066507;28;20846;-49
2021/03/21 00:09:23;;;;;;;11.30;10.15;;;30.20;92.10;;;;;;5066628;28;20233;-49
2021/03/21 00:11:55;;;;;;;11.00;10.10;;;30.20;92.10;;;;;;5065761;28;20569;-48
2021/03/21 00:14:25;;;;;;;12.00;10.77;;;30.20;92.20;;;;;;5066621;28;20319;-49
2021/03/21 00:16:56;;;;;;;11.73;10.65;;;30.20;92.20;;;;;;5051917;28;21495;-51
2021/03/21 00:19:27;;;;;;;13.10;11.88;;;30.30;92.30;;;;;;5056162;28;20218;-52
2021/03/21 00:21:57;;;;;;;12.60;11.52;;;30.30;92.40;;;;;;5066061;28;20685;-53
2021/03/21 00:24:27;;;;;;;12.48;11.23;;;30.30;92.50;;;;;;5065405;28;20737;-49
2021/03/21 00:27:11;;;;;;;11.15;9.95;;;30.40;92.60;;;;;;5065632;28;20684;-52
2021/03/21 00:29:42;;;;;;;11.63;10.57;;;30.40;92.60;;;;;;5055630;28;20241;-51
2021/03/21 00:32:14;;;;;;;12.38;11.27;;;30.50;92.70;;;;;;5052658;28;20198;-50
2021/03/21 00:34:44;;;;;;;11.55;10.45;;;30.50;92.70;;;;;;5051120;28;20804;-50
2021/03/21 00:37:15;;;;;;;13.32;12.00;;;30.50;92.70;;;;;;5051411;28;20271;-49
2021/03/21 00:39:46;;;;;;;12.88;11.68;;;30.60;92.70;;;;;;5051022;28;20233;-50
2021/03/21 00:42:17;;;;;;;12.68;11.38;;;30.60;92.80;;;;;;5050801;28;20202;-50
2021/03/21 00:44:48;;;;;;;11.98;10.80;;;30.70;92.70;;;;;;5063667;28;20548;-48
2021/03/21 00:47:18;;;;;;;12.50;11.20;;;30.70;92.60;;;;;;5063272;28;20197;-50
2021/03/21 00:49:49;;;;;;;12.32;11.13;;;30.80;92.60;;;;;;5065369;28;20693;-51
2021/03/21 00:52:19;;;;;;;11.90;10.90;;;30.80;92.60;;;;;;5066138;28;20233;-52
2021/03/21 00:54:50;;;;;;;11.95;10.70;;;30.90;92.60;;;;;;5066308;28;20201;-49
2021/03/21 00:57:32;;;;;;;11.55;10.45;;;30.90;92.50;;;;;;5050250;28;20267;-54
2021/03/21 01:00:03;;;;;;;11.82;10.75;;;31.00;92.50;;;;;;5050532;28;20271;-51
2021/03/21 01:02:33;;;;;;;11.88;10.77;;;31.00;92.40;;;;;;5049463;28;20195;-50
2021/03/21 01:05:06;;;;;;;12.88;11.70;;;31.10;92.50;;;;;;5065461;28;20696;-50
2021/03/21 01:07:36;;;;;;;13.77;12.38;;;31.10;92.50;;;;;;5065867;28;20250;-50
2021/03/21 01:10:08;;;;;;;13.25;11.38;;;31.10;92.40;;;;;;5066187;28;20281;-50
2021/03/21 01:12:39;;;;;;;11.50;10.40;;;31.20;92.40;;;;;;5053648;28;20198;-49
2021/03/21 01:15:11;;;;;;;11.80;10.70;;;31.20;92.40;;;;;;5057425;28;20236;-48
2021/03/21 01:17:42;;;;;;;12.30;11.18;;;31.30;92.50;;;;;;5065202;28;20212;-50
2021/03/21 01:20:13;;;;;;;12.10;11.05;;;31.30;92.40;;;;;;5065221;28;20209;-50
2021/03/21 01:22:43;;;;;;;11.63;10.57;;;31.40;92.20;;;;;;5064750;28;20198;-50
2021/03/21 01:25:14;;;;;;;11.80;10.70;;;31.40;92.20;;;;;;5065050;28;20688;-51
2021/03/21 01:28:01;;;;;;;11.50;10.50;;;31.50;92.30;;;;;;5063512;28;20201;-50
2021/03/21 01:30:31;;;;;;;10.38;9.52;;;31.60;92.20;;;;;;5065253;28;20190;-53
2021/03/21 01:33:02;;;;;;;11.00;10.00;;;31.60;92.20;;;;;;5061595;28;20206;-49
2021/03/21 01:35:33;;;;;;;14.10;10.77;;;31.70;92.00;;;;;;5064674;28;20193;-52
2021/03/21 01:38:03;;;;;;;11.27;10.27;;;31.70;91.90;;;;;;5065239;28;20251;-48
2021/03/21 01:40:35;;;;;;;11.13;10.13;;;31.80;91.80;;;;;;5062487;28;20769;-48
2021/03/21 01:43:06;;;;;;;11.45;10.35;;;31.90;91.60;;;;;;5022482;28;20207;-52
2021/03/21 01:45:40;;;;;;;11.52;10.43;;;31.90;91.50;;;;;;5022663;28;20210;-48
2021/03/21 01:48:17;;;;;;;12.30;11.18;;;32.00;91.20;;;;;;5015865;28;20215;-49
2021/03/21 01:50:51;;;;;;;12.00;10.57;;;32.10;91.00;;;;;;5023254;28;20227;-50
2021/03/21 01:53:26;;;;;;;12.00;10.95;;;32.10;91.00;;;;;;5015149;28;20276;-49
2021/03/21 01:55:56;;;;;;;11.98;10.77;;;32.20;90.60;;;;;;5012682;28;20207;-51
2021/03/21 01:58:29;;;;;;;12.43;11.40;;;32.30;90.70;;;;;;5006163;28;20211;-49
2021/03/21 02:01:00;;;;;;;11.68;10.68;;;32.30;90.50;;;;;;5022203;28;20266;-51
2021/03/21 02:03:30;;;;;;;11.93;10.82;;;32.40;90.40;;;;;;5021718;28;20639;-51
2021/03/21 02:06:06;;;;;;;11.55;10.45;;;32.40;90.10;;;;;;5022809;28;20213;-53
2021/03/21 02:08:46;;;;;;;11.43;10.32;;;32.50;90.20;;;;;;5018393;28;20206;-52
2021/03/21 02:11:29;;;;;;;11.98;10.93;;;32.60;89.60;;;;;;5006671;28;20237;-53
2021/03/21 02:14:03;;;;;;;12.70;11.48;;;32.60;89.30;;;;;;4988316;28;20213;-51
2021/03/21 02:16:36;;;;;;;11.75;10.55;;;32.80;88.80;;;;;;5020567;28;20210;-54
2021/03/21 02:19:28;;;;;;;11.95;10.75;;;32.80;88.40;;;;;;4948424;28;20316;-53
2021/03/21 02:22:00;;;;;;;12.00;10.95;;;32.90;87.50;;;;;;4909849;29;20606;-53
2021/03/21 02:25:01;;;;;;;12.35;11.30;;;33.00;87.00;;;;;;4920725;29;20207;-50
2021/03/21 02:27:57;;;;;;;11.30;10.20;;;33.10;86.00;;;;;;4882413;29;20208;-52
2021/03/21 02:30:29;;;;;;;11.65;10.55;;;33.20;85.60;;;;;;4846388;29;20209;-55
2021/03/21 02:33:02;;;;;;;11.88;10.77;;;33.20;85.70;;;;;;4870433;29;20224;-54
2021/03/21 02:35:35;;;;;;;11.80;10.80;;;33.30;84.90;;;;;;4876817;29;20291;-49
2021/03/21 02:38:08;;;;;;;12.68;11.55;;;33.40;84.60;;;;;;4886749;29;20299;-49
2021/03/21 02:40:39;;;;;;;14.88;13.57;;;33.40;83.40;;;;;;4859148;29;20224;-50
2021/03/21 02:43:10;;;;;;;14.27;13.07;;;33.50;82.00;;;;;;4809219;29;20644;-54
2021/03/21 02:45:41;;;;;;;13.70;11.75;;;33.50;80.70;;;;;;4781309;30;20282;-53
2021/03/21 02:48:14;;;;;;;15.25;13.95;;;33.60;81.00;;;;;;4778794;30;20216;-52
2021/03/21 02:50:46;;;;;;;13.70;12.60;;;33.60;79.20;;;;;;4807179;29;20234;-52
2021/03/21 02:53:19;;;;;;;12.70;11.60;;;33.60;79.70;;;;;;4820899;29;20222;-50
2021/03/21 02:55:50;;;;;;;13.65;12.43;;;33.60;79.90;;;;;;4869752;29;20291;-52
2021/03/21 02:58:23;;;;;;;13.40;12.30;;;33.70;80.10;;;;;;4855638;29;20225;-52
2021/03/21 03:00:57;;;;;;;14.02;12.80;;;33.80;79.80;;;;;;4875707;29;21156;-53
2021/03/21 03:03:27;;;;;;;12.95;11.82;;;33.80;79.70;;;;;;4888865;29;20211;-51
2021/03/21 03:05:59;;;;;;;12.52;11.43;;;33.90;79.90;;;;;;4887852;29;20219;-48
2021/03/21 03:08:31;;;;;;;14.00;12.80;;;33.90;80.10;;;;;;4914655;29;20627;-54
2021/03/21 03:11:02;;;;;;;15.60;14.27;;;34.00;77.80;;;;;;4931047;28;20214;-54
2021/03/21 03:13:35;;;;;;;14.13;12.82;;;34.00;77.60;;;;;;4950775;28;20221;-52
2021/03/21 03:16:10;;;;;;;13.65;12.45;;;34.10;78.30;;;;;;4973079;28;20211;-52
2021/03/21 03:18:42;;;;;;;15.55;14.15;;;34.10;78.00;;;;;;5009029;28;20291;-51
2021/03/21 03:21:15;;;;;;;14.45;13.18;;;34.10;77.90;;;;;;4950776;28;20212;-51
2021/03/21 03:23:48;;;;;;;12.98;11.98;;;34.20;78.20;;;;;;4951183;28;20216;-51
2021/03/21 03:26:19;;;;;;;14.38;13.07;;;34.20;78.30;;;;;;4947481;28;20212;-49
2021/03/21 03:28:51;;;;;;;16.08;14.68;;;34.30;78.10;;;;;;4951831;28;20220;-52
2021/03/21 03:31:26;;;;;;;14.82;13.52;;;34.30;75.80;;;;;;4929143;29;20198;-50
2021/03/21 03:33:57;;;;;;;13.13;12.07;;;34.40;76.00;;;;;;4930942;29;20201;-48
2021/03/21 03:36:27;;;;;;;13.70;12.48;;;34.40;76.90;;;;;;4930583;29;20237;-52
2021/03/21 03:38:58;;;;;;;14.35;13.05;;;34.50;77.10;;;;;;4971436;28;20692;-49
2021/03/21 03:41:36;;;;;;;13.77;12.68;;;34.50;76.50;;;;;;4982134;28;20208;-51
2021/03/21 03:44:15;;;;;;;16.45;14.95;;;34.60;76.00;;;;;;4983420;28;20200;-50
2021/03/21 03:46:50;;;;;;;14.85;13.55;;;34.70;75.60;;;;;;4954386;28;20213;-50
2021/03/21 03:49:28;;;;;;;14.73;13.38;;;34.80;75.20;;;;;;4950364;28;20716;-49
2021/03/21 03:52:12;;;;;;;13.65;12.55;;;34.90;75.30;;;;;;4930888;29;20230;-50
2021/03/21 03:54:44;;;;;;;14.82;13.45;;;34.90;74.10;;;;;;4908118;29;20212;-50
2021/03/21 03:57:17;;;;;;;17.48;14.55;;;35.00;74.60;;;;;;4906387;29;20215;-51
2021/03/21 04:00:05;;;;;;;13.93;12.68;;;35.00;73.90;;;;;;4910170;29;20242;-49
2021/03/21 04:02:43;;;;;;;13.40;12.30;;;35.10;74.50;;;;;;4929314;29;20599;-51
2021/03/21 04:05:19;;;;;;;14.10;12.80;;;35.20;74.20;;;;;;4948241;29;20220;-49
2021/03/21 04:07:52;;;;;;;15.75;14.25;;;35.30;73.90;;;;;;4948156;29;20240;-52
2021/03/21 04:10:23;;;;;;;17.55;15.95;;;35.30;73.10;;;;;;4948253;29;20213;-49
2021/03/21 04:12:58;;;;;;;17.85;16.38;;;35.40;71.50;;;;;;4959737;28;20200;-48
2021/03/21 04:15:30;;;;;;;16.88;15.27;;;35.40;69.20;;;;;;4972684;28;20211;-49
2021/03/21 04:18:04;;;;;;;19.30;17.38;;;35.40;70.00;;;;;;5044060;28;20428;-48
2021/03/21 04:20:36;;;;;;;15.63;14.18;;;35.40;68.00;;;;;;5059607;28;20271;-48
2021/03/21 04:23:11;;;;;;;14.43;13.13;;;35.30;70.70;;;;;;4985511;28;20204;-48
2021/03/21 04:25:43;;;;;;;14.90;13.70;;;35.40;70.90;;;;;;4986082;28;20203;-51
2021/03/21 04:28:17;;;;;;;15.45;13.95;;;35.40;71.40;;;;;;4986095;28;20192;-51
2021/03/21 04:30:49;;;;;;;17.00;15.43;;;35.50;71.00;;;;;;4983865;28;20199;-50
2021/03/21 04:33:23;;;;;;;17.00;15.50;;;35.60;69.70;;;;;;4989657;28;20198;-50
2021/03/21 04:35:55;;;;;;;15.98;14.68;;;35.60;69.60;;;;;;4996949;28;21154;-51
2021/03/21 04:38:28;;;;;;;18.00;16.45;;;35.70;69.70;;;;;;4994673;28;20200;-50
2021/03/21 04:40:58;;;;;;;17.30;15.75;;;35.70;68.40;;;;;;4961561;28;21087;-50
2021/03/21 04:43:31;;;;;;;18.08;16.38;;;35.70;69.10;;;;;;4948373;28;20651;-53
2021/03/21 04:46:03;;;;;;;18.63;16.73;;;35.70;68.50;;;;;;4948351;28;20347;-50
2021/03/21 04:48:34;;;;;;;15.93;14.45;;;35.80;68.20;;;;;;5031030;28;20353;-49
2021/03/21 04:51:06;;;;;;;13.80;12.57;;;35.80;69.50;;;;;;5043770;28;20222;-49
2021/03/21 04:53:41;;;;;;;13.10;12.07;;;35.90;69.70;;;;;;5001215;28;20212;-50
2021/03/21 04:56:17;;;;;;;15.73;14.43;;;36.00;70.10;;;;;;5001841;28;20223;-50
2021/03/21 04:58:49;;;;;;;15.52;14.13;;;36.10;69.00;;;;;;4995619;28;20211;-50
2021/03/21 05:01:22;;;;;;;13.50;12.30;;;36.20;69.10;;;;;;5002768;28;20427;-48
2021/03/21 05:03:57;;;;;;;13.38;12.20;;;36.20;70.00;;;;;;5001245;28;20206;-49
2021/03/21 05:06:34;;;;;;;14.30;13.00;;;36.30;69.60;;;;;;5003206;28;20211;-49
2021/03/21 05:09:05;;;;;;;14.02;12.82;;;36.50;70.50;;;;;;4963658;28;20213;-51
2021/03/21 05:11:38;;;;;;;16.20;14.80;;;36.60;70.00;;;;;;4993169;28;20219;-50
2021/03/21 05:14:10;;;;;;;14.60;13.18;;;36.60;67.30;;;;;;5022546;28;20199;-50
2021/03/21 05:16:57;;;;;;;13.02;11.93;;;36.70;68.10;;;;;;5005304;28;20207;-50
2021/03/21 05:19:32;;;;;;;17.42;15.75;;;36.80;68.20;;;;;;5007524;28;20329;-53
2021/03/21 05:22:04;;;;;;;15.65;14.23;;;36.90;66.10;;;;;;5003557;28;20203;-52
2021/03/21 05:24:37;;;;;;;15.48;14.10;;;36.90;66.40;;;;;;5034430;28;20214;-50
2021/03/21 05:27:10;;;;;;;14.90;13.60;;;36.90;66.60;;;;;;5048658;28;21024;-48
2021/03/21 05:29:47;;;;;;;14.35;13.05;;;36.90;66.20;;;;;;4988409;28;20211;-52
2021/03/21 05:32:18;;;;;;;14.68;13.48;;;37.00;66.20;;;;;;4983707;28;20321;-51
2021/03/21 05:34:51;;;;;;;14.73;13.32;;;37.00;66.40;;;;;;4994316;28;20679;-50
2021/03/21 05:37:26;;;;;;;13.95;12.73;;;37.00;66.00;;;;;;4987968;28;20234;-50
2021/03/21 05:40:02;;;;;;;13.60;11.82;;;37.10;66.30;;;;;;4944960;28;20303;-51
2021/03/21 05:43:04;;;;;;;15.13;13.82;;;37.10;66.90;;;;;;4961401;28;20683;-49
2021/03/21 05:46:09;;;;;;;16.17;14.68;;;37.10;65.10;;;;;;4960737;28;20213;-51
2021/03/21 05:49:18;;;;;;;14.77;13.48;;;37.10;63.10;;;;;;4954909;28;20756;-48
2021/03/21 05:52:26;;;;;;;14.38;13.07;;;37.10;64.70;;;;;;4963975;28;20577;-52
2021/03/21 05:55:25;;;;;;;13.10;12.05;;;37.00;65.10;;;;;;4991202;28;20205;-50
2021/03/21 05:58:27;;;;;;;13.13;12.05;;;37.00;65.60;;;;;;4970677;28;20284;-50
2021/03/21 06:01:22;;;;;;;14.02;12.73;;;37.00;65.10;;;;;;4964047;28;20967;-51
2021/03/21 06:04:42;;;;;;;16.60;14.77;;;37.10;65.20;;;;;;4925449;29;20202;-52
2021/03/21 06:07:50;;;;;;;16.02;14.15;;;37.10;63.50;;;;;;4925717;29;20202;-50
2021/03/21 06:11:11;;;;;;;14.95;13.63;;;37.00;64.30;;;;;;4939845;28;20303;-50
2021/03/21 06:13:50;;;;;;;16.85;15.38;;;37.00;63.80;;;;;;4943457;28;20244;-50
2021/03/21 06:16:44;;;;;;;13.73;12.52;;;36.90;63.50;;;;;;4923135;29;20661;-50
2021/03/21 06:19:30;;;;;;;12.50;11.40;;;36.90;65.30;;;;;;4908755;29;20298;-50
2021/03/21 06:22:24;;;;;;;14.55;13.35;;;37.00;66.10;;;;;;4865466;29;20691;-51
2021/03/21 06:25:02;;;;;;;13.68;12.57;;;37.00;65.20;;;;;;4845039;29;20205;-53
2021/03/21 06:28:16;;;;;;;15.77;14.27;;;37.20;64.40;;;;;;4856093;29;20215;-49
2021/03/21 06:31:17;;;;;;;16.83;15.35;;;37.30;64.50;;;;;;4850767;29;20201;-49
2021/03/21 06:33:51;;;;;;;14.10;12.90;;;37.40;63.20;;;;;;4828565;29;20264;-54
2021/03/21 06:36:31;;;;;;;17.20;15.65;;;37.40;63.40;;;;;;4851675;29;20282;-53
2021/03/21 06:39:35;;;;;;;16.67;15.18;;;37.50;62.20;;;;;;4814826;29;20221;-49
2021/03/21 06:42:37;;;;;;;16.20;14.75;;;37.50;59.90;;;;;;4813760;29;20656;-48
2021/03/21 06:45:42;;;;;;;13.95;12.68;;;37.50;61.50;;;;;;4833091;29;20241;-51
2021/03/21 06:48:48;;;;;;;14.80;13.35;;;37.60;61.80;;;;;;4904209;29;20669;-51
2021/03/21 06:51:33;;;;;;;16.60;15.13;;;37.60;62.00;;;;;;4944052;29;20232;-48
2021/03/21 06:54:23;;;;;;;16.80;15.30;;;37.70;60.30;;;;;;4948704;28;20661;-50
2021/03/21 06:57:19;;;;;;;17.33;15.70;;;37.80;59.30;;;;;;4964748;28;20687;-51
2021/03/21 07:00:12;;;;;;;17.35;15.52;;;37.80;58.10;;;;;;4962379;28;20342;-50
2021/03/21 07:03:28;;;;;;;16.95;15.55;;;37.80;58.90;;;;;;4971501;28;20202;-50
2021/03/21 07:06:40;;;;;;;14.65;13.38;;;37.80;59.30;;;;;;4964039;28;20200;-51
2021/03/21 07:09:26;;;;;;;14.93;13.65;;;37.90;59.70;;;;;;5059908;28;20642;-52
2021/03/21 07:12:26;;;;;;;19.02;17.35;;;38.00;59.30;;;;;;5039777;28;20194;-50
2021/03/21 07:15:36;;;;;;;17.88;16.33;;;38.10;56.90;;;;;;5060216;28;20185;-49
2021/03/21 07:18:33;;;;;;;16.30;14.82;;;38.10;57.10;;;;;;5050985;28;20201;-52
2021/03/21 07:21:41;;;;;;;15.65;14.20;;;38.10;58.20;;;;;;5063405;28;20673;-51
2021/03/21 07:24:36;;;;;;;15.18;13.98;;;38.10;58.30;;;;;;5063910;28;20194;-48
2021/03/21 07:27:35;;;;;;;17.02;15.57;;;38.10;58.30;;;;;;5057102;28;20190;-51
2021/03/21 07:30:06;;;;;;;15.32;14.00;;;38.20;57.60;;;;;;5066803;28;20217;-48
2021/03/21 07:33:19;;;;;;;19.25;17.67;;;38.20;57.80;;;;;;5067107;28;20630;-52
2021/03/21 07:36:02;;;;;;;18.95;17.05;;;38.20;55.10;;;;;;5062919;28;20529;-49
2021/03/21 07:38:48;;;;;;;19.75;18.05;;;38.20;56.60;;;;;;5064307;28;20190;-48
2021/03/21 07:41:22;;;;;;;17.15;15.75;;;38.20;55.40;;;;;;5064646;28;20214;-49
2021/03/21 07:44:25;;;;;;;17.95;16.30;;;38.20;56.00;;;;;;5019935;28;20210;-51
2021/03/21 07:47:22;;;;;;;18.65;16.95;;;38.20;56.20;;;;;;4979854;28;20241;-48
2021/03/21 07:50:16;;;;;;;18.85;17.23;;;38.20;56.10;;;;;;5023236;28;20887;-48
2021/03/21 07:53:07;;;;;;;16.50;15.07;;;38.20;56.10;;;;;;5019233;28;20209;-50
2021/03/21 07:55:41;;;;;;;16.55;15.02;;;38.20;55.50;;;;;;4984028;28;20234;-48
2021/03/21 07:58:16;;;;;;;15.82;14.43;;;38.30;56.30;;;;;;4980407;28;20384;-50
2021/03/21 08:00:47;;;;;;;18.05;16.40;;;38.30;56.10;;;;;;4983697;28;20231;-50
2021/03/21 08:03:25;;;;;;;16.08;14.77;;;38.40;55.80;;;;;;5042154;28;20210;-50
2021/03/21 08:05:57;;;;;;;17.17;15.68;;;38.40;55.90;;;;;;5042596;28;20329;-50
2021/03/21 08:08:28;;;;;;;16.38;14.98;;;38.40;56.00;;;;;;5041291;28;20250;-50
2021/03/21 08:11:02;;;;;;;16.10;14.70;;;38.40;56.00;;;;;;5039036;28;20668;-50
2021/03/21 08:13:41;;;;;;;15.02;13.88;;;38.40;56.00;;;;;;5041591;28;20273;-48
2021/03/21 08:16:14;;;;;;;15.63;14.32;;;38.50;56.40;;;;;;5041790;28;20238;-51
2021/03/21 08:18:45;;;;;;;16.55;15.00;;;38.50;55.80;;;;;;5044289;28;20281;-49
2021/03/21 08:21:18;;;;;;;16.13;14.80;;;38.50;55.70;;;;;;5063415;28;20237;-51
2021/03/21 08:23:50;;;;;;;15.57;14.27;;;38.50;55.80;;;;;;5065192;28;20216;-50
2021/03/21 08:26:25;;;;;;;13.95;12.80;;;38.50;56.20;;;;;;5066422;28;20190;-51
2021/03/21 08:29:01;;;;;;;15.57;14.27;;;38.50;56.50;;;;;;5064001;28;20194;-51
2021/03/21 08:31:33;;;;;;;14.82;13.43;;;38.60;56.40;;;;;;5060950;28;20205;-50
2021/03/21 08:34:34;;;;;;;15.60;14.15;;;38.60;56.40;;;;;;5067355;28;20247;-50
2021/03/21 08:37:20;;;;;;;19.23;17.50;;;38.70;54.70;;;;;;5064713;28;20204;-51
2021/03/21 08:39:52;;;;;;;16.10;14.60;;;38.70;54.60;;;;;;5066023;28;20648;-49
2021/03/21 08:42:37;;;;;;;16.83;15.32;;;38.70;55.10;;;;;;5064464;28;20200;-51
2021/03/21 08:45:33;;;;;;;18.38;16.67;;;38.70;54.30;;;;;;5063653;28;20200;-52
2021/03/21 08:48:33;;;;;;;15.65;14.15;;;38.60;54.50;;;;;;5063492;28;20338;-49
2021/03/21 08:51:24;;;;;;;15.13;13.60;;;38.60;55.40;;;;;;5057515;28;20772;-49
2021/03/21 08:53:56;;;;;;;18.95;17.25;;;38.60;55.60;;;;;;5065066;28;20196;-49
2021/03/21 08:56:28;;;;;;;16.75;15.25;;;38.60;54.40;;;;;;5065708;28;20202;-51
2021/03/21 08:59:21;;;;;;;17.23;15.57;;;38.60;54.80;;;;;;5017947;28;20195;-52
2021/03/21 09:02:10;;;;;;;18.42;16.70;;;38.70;55.20;;;;;;5019689;28;20277;-49
2021/03/21 09:04:43;;;;;;;15.80;14.40;;;38.70;54.80;;;;;;5021664;28;20203;-52
2021/03/21 09:07:23;;;;;;;15.20;14.07;;;38.70;55.40;;;;;;5017867;28;20325;-51
2021/03/21 09:10:19;;;;;;;15.80;14.43;;;38.80;55.10;;;;;;5020516;28;20416;-54
2021/03/21 09:12:49;;;;;;;19.98;18.10;;;38.90;54.30;;;;;;5021605;28;20195;-51
2021/03/21 09:15:27;;;;;;;15.52;14.30;;;38.80;54.00;;;;;;5021051;28;20257;-50
2021/03/21 09:18:23;;;;;;;17.13;15.52;;;38.80;54.60;;;;;;5019922;28;20201;-48
2021/03/21 09:21:14;;;;;;;18.00;16.50;;;38.80;53.80;;;;;;5019385;28;20223;-50
2021/03/21 09:23:47;;;;;;;16.35;14.95;;;38.70;54.00;;;;;;5006352;28;20598;-49
2021/03/21 09:26:33;;;;;;;16.13;14.82;;;38.70;54.30;;;;;;5027621;28;20318;-50
2021/03/21 09:29:25;;;;;;;15.75;14.35;;;38.70;54.50;;;;;;5029134;28;20595;-50
2021/03/21 09:31:58;;;;;;;16.52;15.02;;;38.70;55.00;;;;;;5028131;28;20197;-49
2021/03/21 09:34:47;;;;;;;16.50;15.00;;;38.70;55.20;;;;;;5029031;28;20930;-51
2021/03/21 09:37:20;;;;;;;15.77;14.48;;;38.70;55.50;;;;;;5019455;28;20195;-49
2021/03/21 09:39:59;;;;;;;13.45;12.45;;;38.80;55.60;;;;;;5026768;28;20195;-50
2021/03/21 09:42:29;;;;;;;13.95;12.75;;;38.80;56.00;;;;;;4988393;28;20203;-52
2021/03/21 09:45:00;;;;;;;13.95;12.60;;;38.90;55.90;;;;;;4986318;28;20204;-49
2021/03/21 09:47:36;;;;;;;14.05;12.85;;;38.90;56.10;;;;;;4996970;28;20260;-48
2021/03/21 09:50:31;;;;;;;14.93;13.23;;;39.00;56.00;;;;;;4970202;28;20291;-49
2021/03/21 09:53:09;;;;;;;13.20;12.00;;;39.00;56.00;;;;;;4913055;29;20199;-49
2021/03/21 09:55:41;;;;;;;12.68;11.63;;;39.00;56.30;;;;;;4893018;29;20259;-49
2021/03/21 09:58:32;;;;;;;13.07;11.98;;;39.00;56.30;;;;;;4860377;29;20211;-49
2021/03/21 10:01:06;;;;;;;12.75;11.65;;;39.00;56.20;;;;;;4856424;29;20241;-48
2021/03/21 10:03:38;;;;;;;13.40;12.10;;;39.00;56.10;;;;;;4860199;29;20692;-50
2021/03/21 10:06:10;;;;;;;15.27;13.88;;;39.00;56.40;;;;;;4864014;29;20220;-49
2021/03/21 10:08:52;;;;;;;14.27;13.02;;;39.00;56.40;;;;;;4907315;29;20215;-49
2021/03/21 10:11:26;;;;;;;13.63;12.23;;;39.00;56.70;;;;;;4849988;29;20314;-51
2021/03/21 10:13:56;;;;;;;14.25;12.95;;;38.90;56.80;;;;;;4858584;29;20208;-50
2021/03/21 10:16:44;;;;;;;14.50;13.20;;;38.90;56.80;;;;;;4894630;29;20214;-50
2021/03/21 10:19:15;;;;;;;13.93;12.73;;;38.90;57.00;;;;;;4944521;29;20205;-51
2021/03/21 10:21:45;;;;;;;13.52;12.38;;;38.90;57.00;;;;;;4926384;29;20357;-53
2021/03/21 10:24:37;;;;;;;13.15;12.00;;;38.80;57.00;;;;;;4922803;29;20294;-49
2021/03/21 10:27:35;;;;;;;13.88;12.68;;;38.80;57.60;;;;;;4938687;29;20742;-50
2021/03/21 10:30:29;;;;;;;14.15;12.85;;;38.90;57.90;;;;;;5040753;28;20197;-49
2021/03/21 10:33:29;;;;;;;14.20;12.93;;;39.00;58.10;;;;;;5061294;28;20284;-51
2021/03/21 10:36:02;;;;;;;12.52;11.52;;;39.10;58.10;;;;;;5060943;28;21007;-48
2021/03/21 10:38:55;;;;;;;13.18;12.00;;;39.20;58.00;;;;;;5063491;28;20211;-48
2021/03/21 10:42:06;;;;;;;12.60;11.43;;;39.40;57.90;;;;;;5062982;28;20248;-50
2021/03/21 10:45:00;;;;;;;11.70;10.63;;;39.50;57.70;;;;;;5041748;28;20207;-50
2021/03/21 10:47:48;;;;;;;12.98;11.85;;;39.70;57.80;;;;;;5036126;28;20221;-49
2021/03/21 10:50:53;;;;;;;14.75;13.45;;;39.70;57.30;;;;;;5063264;28;21681;-51
2021/03/21 10:53:35;;;;;;;13.27;11.90;;;39.80;57.10;;;;;;5058238;28;20284;-50
2021/03/21 10:56:08;;;;;;;12.80;11.60;;;39.80;56.90;;;;;;5062582;28;20224;-49
2021/03/21 10:58:56;;;;;;;11.93;10.80;;;39.70;56.70;;;;;;5065784;28;20202;-48
2021/03/21 11:01:31;;;;;;;13.27;11.45;;;39.60;56.90;;;;;;5054345;28;20269;-52
2021/03/21 11:04:12;;;;;;;12.90;11.80;;;39.50;56.80;;;;;;5056702;28;20208;-51
2021/03/21 11:06:51;;;;;;;12.00;10.98;;;39.40;56.80;;;;;;5021907;28;20208;-49
2021/03/21 11:09:25;;;;;;;13.10;11.90;;;39.30;57.20;;;;;;5019739;28;20265;-50
2021/03/21 11:11:56;;;;;;;13.85;12.55;;;39.10;57.20;;;;;;5019041;28;20247;-50
2021/03/21 11:14:31;;;;;;;14.38;12.80;;;39.00;57.40;;;;;;5025080;28;20360;-51
2021/03/21 11:17:02;;;;;;;12.95;11.85;;;38.80;57.50;;;;;;5012112;28;20222;-53
2021/03/21 11:19:45;;;;;;;12.55;11.35;;;38.60;57.60;;;;;;5022889;28;20205;-51
2021/03/21 11:22:26;;;;;;;12.55;11.52;;;38.40;57.90;;;;;;5024906;28;20305;-53
2021/03/21 11:24:58;;;;;;;11.82;10.82;;;38.20;58.30;;;;;;4971018;28;20208;-51
2021/03/21 11:27:30;;;;;;;12.02;10.82;;;38.00;58.40;;;;;;4971078;28;20213;-52
2021/03/21 11:30:13;;;;;;;11.93;10.85;;;37.90;58.80;;;;;;4970782;28;20216;-50
2021/03/21 11:32:43;;;;;;;11.10;10.00;;;37.70;59.40;;;;;;4971422;28;20210;-51
2021/03/21 11:35:16;;;;;;;11.20;10.20;;;37.50;59.50;;;;;;4970870;28;20215;-50
2021/03/21 11:37:46;;;;;;;11.85;10.85;;;37.30;59.80;;;;;;5002068;28;20210;-53
2021/03/21 11:40:20;;;;;;;12.35;11.07;;;37.10;60.30;;;;;;5033711;28;20270;-48
2021/03/21 11:42:51;;;;;;;11.65;10.45;;;36.90;60.90;;;;;;5028987;28;20244;-50
2021/03/21 11:45:28;;;;;;;11.02;10.05;;;36.80;61.30;;;;;;5041786;28;20210;-49
2021/03/21 11:47:59;;;;;;;11.60;10.50;;;36.60;62.00;;;;;;5041702;28;20881;-49
2021/03/21 11:50:31;;;;;;;13.68;12.27;;;36.50;62.20;;;;;;5039047;28;20222;-52
2021/03/21 11:53:01;;;;;;;11.55;10.50;;;36.40;62.90;;;;;;4984737;28;20220;-48
2021/03/21 11:55:34;;;;;;;10.55;9.48;;;36.20;63.10;;;;;;4988988;28;20221;-52
2021/03/21 11:58:06;;;;;;;10.52;9.60;;;36.10;64.60;;;;;;5019293;28;20473;-52
2021/03/21 12:00:36;;;;;;;10.93;9.80;;;36.00;64.00;;;;;;5008564;28;20270;-52
2021/03/21 12:03:08;;;;;;;11.85;10.63;;;35.90;64.30;;;;;;5008502;28;20207;-52
2021/03/21 12:05:41;;;;;;;13.73;11.68;;;35.80;64.70;;;;;;5024006;28;20252;-50
2021/03/21 12:08:25;;;;;;;11.95;10.18;;;35.70;65.00;;;;;;5007850;28;20218;-48
2021/03/21 12:11:16;;;;;;;13.75;11.48;;;35.70;65.60;;;;;;5009623;28;20211;-49
2021/03/21 12:13:46;;;;;;;13.38;11.57;;;35.60;66.20;;;;;;5009881;28;20269;-48
2021/03/21 12:16:39;;;;;;;13.55;11.55;;;35.50;66.00;;;;;;5008413;28;20295;-49
2021/03/21 12:19:26;;;;;;;12.80;11.55;;;35.30;66.60;;;;;;5016257;28;20217;-50
2021/03/21 12:21:58;;;;;;;16.80;13.75;;;35.30;66.90;;;;;;5019013;28;20411;-50
2021/03/21 12:24:28;;;;;;;19.52;15.52;;;35.20;67.10;;;;;;5052327;28;20190;-48
2021/03/21 12:27:02;;;;;;;17.05;13.88;;;35.20;67.40;;;;;;5066262;28;20809;-48
2021/03/21 12:29:50;;;;;;;13.77;11.05;;;35.00;67.80;;;;;;5065050;28;20808;-49
2021/03/21 12:32:39;;;;;;;11.70;10.45;;;35.00;68.30;;;;;;5064660;28;20194;-53
2021/03/21 12:35:13;;;;;;;11.52;10.27;;;34.90;68.50;;;;;;5065318;28;20189;-49
2021/03/21 12:37:54;;;;;;;9.73;8.82;;;34.90;68.70;;;;;;5066005;28;20189;-50
2021/03/21 12:40:33;;;;;;;9.75;8.80;;;34.80;69.10;;;;;;5065100;28;20197;-49
2021/03/21 12:43:29;;;;;;;8.25;7.55;;;34.80;69.60;;;;;;5064384;28;20289;-51
2021/03/21 12:46:08;;;;;;;7.72;7.10;;;34.70;69.60;;;;;;5064685;28;20298;-49
2021/03/21 12:48:48;;;;;;;7.93;7.22;;;34.70;69.80;;;;;;5065007;28;20618;-53
2021/03/21 12:51:28;;;;;;;7.47;6.78;;;34.60;70.00;;;;;;5060588;28;20221;-50
2021/03/21 12:53:59;;;;;;;8.50;7.55;;;34.60;70.20;;;;;;5064299;28;20197;-48
2021/03/21 12:56:29;;;;;;;7.38;6.68;;;34.50;69.90;;;;;;5065949;28;20205;-51
2021/03/21 12:59:01;;;;;;;7.43;6.72;;;34.50;70.20;;;;;;5065232;28;20206;-49
2021/03/21 13:01:31;;;;;;;8.20;7.40;;;34.50;70.30;;;;;;5053201;28;20220;-50
2021/03/21 13:04:02;;;;;;;7.38;6.78;;;34.40;70.40;;;;;;5057366;28;20705;-52
2021/03/21 13:06:41;;;;;;;7.30;6.60;;;34.40;70.60;;;;;;5063093;28;20205;-48
2021/03/21 13:09:11;;;;;;;7.00;6.38;;;34.40;70.70;;;;;;5064832;28;20236;-48
2021/03/21 13:11:42;;;;;;;7.60;6.90;;;34.40;70.90;;;;;;5050599;28;20646;-49
2021/03/21 13:14:14;;;;;;;6.95;6.25;;;34.30;71.10;;;;;;5065587;28;20212;-52
2021/03/21 13:16:44;;;;;;;7.35;6.65;;;34.30;71.50;;;;;;5050731;28;20288;-51
2021/03/21 13:19:15;;;;;;;7.82;7.15;;;34.20;71.50;;;;;;5062898;28;20205;-50
2021/03/21 13:21:45;;;;;;;7.22;6.65;;;34.20;71.70;;;;;;5056951;28;20264;-53
2021/03/21 13:24:15;;;;;;;7.60;6.82;;;34.10;71.90;;;;;;5050403;28;20593;-50
2021/03/21 13:26:46;;;;;;;7.18;6.57;;;34.10;72.10;;;;;;5050437;28;20198;-49
2021/03/21 13:29:17;;;;;;;7.97;7.18;;;34.10;72.30;;;;;;5057792;28;20236;-49